sensor_id;sensor_type;location;lat;lon;timestamp;P1;durP1;ratioP1;P2;durP2;ratioP2
44228;SDS011;29904;51.058;5.378;2022-08-03T00:00:54;4.20;;;1.80;;
44228;SDS011;29904;51.058;5.378;2022-08-03T00:03:20;4.37;;;1.83;;
44228;SDS011;29904;51.058;5.378;2022-08-03T00:05:46;3.03;;;1.40;;
44228;SDS011;29904;51.058;5.378;2022-08-03T00:08:11;3.15;;;1.40;;
44228;SDS011;29904;51.058;5.378;2022-08-03T00:10:37;3.87;;;1.40;;
44228;SDS011;29904;51.058;5.378;2022-08-03T00:13:05;4.63;;;1.70;;
44228;SDS011;29904;51.058;5.378;2022-08-03T00:15:31;3.05;;;1.40;;
44228;SDS011;29904;51.058;5.378;2022-08-03T00:17:56;3.47;;;1.40;;
44228;SDS011;29904;51.058;5.378;2022-08-03T00:20:22;4.53;;;1.48;;
44228;SDS011;29904;51.058;5.378;2022-08-03T00:22:49;4.15;;;1.50;;
44228;SDS011;29904;51.058;5.378;2022-08-03T00:25:14;3.13;;;1.48;;
44228;SDS011;29904;51.058;5.378;2022-08-03T00:27:40;2.20;;;1.30;;
44228;SDS011;29904;51.058;5.378;2022-08-03T00:30:08;2.57;;;1.33;;
44228;SDS011;29904;51.058;5.378;2022-08-03T00:32:34;3.37;;;1.20;;
44228;SDS011;29904;51.058;5.378;2022-08-03T00:34:59;2.33;;;1.48;;
44228;SDS011;29904;51.058;5.378;2022-08-03T00:37:27;2.27;;;1.30;;
44228;SDS011;29904;51.058;5.378;2022-08-03T00:39:56;2.78;;;1.20;;
44228;SDS011;29904;51.058;5.378;2022-08-03T00:42:22;4.17;;;1.50;;
44228;SDS011;29904;51.058;5.378;2022-08-03T00:44:50;2.35;;;1.20;;
44228;SDS011;29904;51.058;5.378;2022-08-03T00:47:15;2.33;;;1.30;;
44228;SDS011;29904;51.058;5.378;2022-08-03T00:49:41;2.70;;;1.30;;
44228;SDS011;29904;51.058;5.378;2022-08-03T00:52:09;2.67;;;1.27;;
44228;SDS011;29904;51.058;5.378;2022-08-03T00:54:37;3.22;;;1.30;;
44228;SDS011;29904;51.058;5.378;2022-08-03T00:57:03;3.50;;;1.40;;
44228;SDS011;29904;51.058;5.378;2022-08-03T00:59:31;4.30;;;1.45;;
44228;SDS011;29904;51.058;5.378;2022-08-03T01:01:57;3.20;;;1.60;;
44228;SDS011;29904;51.058;5.378;2022-08-03T01:04:23;2.97;;;1.50;;
44228;SDS011;29904;51.058;5.378;2022-08-03T01:06:56;2.97;;;1.40;;
44228;SDS011;29904;51.058;5.378;2022-08-03T01:09:39;3.28;;;1.35;;
44228;SDS011;29904;51.058;5.378;2022-08-03T01:12:31;3.28;;;1.50;;
44228;SDS011;29904;51.058;5.378;2022-08-03T01:15:11;4.72;;;1.35;;
44228;SDS011;29904;51.058;5.378;2022-08-03T01:17:48;3.35;;;1.30;;
44228;SDS011;29904;51.058;5.378;2022-08-03T01:20:20;4.40;;;1.40;;
44228;SDS011;29904;51.058;5.378;2022-08-03T01:31:13;3.22;;;1.50;;
44228;SDS011;29904;51.058;5.378;2022-08-03T01:33:46;2.72;;;1.40;;
44228;SDS011;29904;51.058;5.378;2022-08-03T01:36:23;3.20;;;1.30;;
44228;SDS011;29904;51.058;5.378;2022-08-03T01:38:55;4.75;;;1.60;;
44228;SDS011;29904;51.058;5.378;2022-08-03T01:41:28;3.15;;;1.35;;
44228;SDS011;29904;51.058;5.378;2022-08-03T01:44:00;3.03;;;1.35;;
44228;SDS011;29904;51.058;5.378;2022-08-03T01:46:29;4.38;;;1.30;;
44228;SDS011;29904;51.058;5.378;2022-08-03T01:48:56;1.63;;;1.20;;
44228;SDS011;29904;51.058;5.378;2022-08-03T01:51:25;4.50;;;1.50;;
44228;SDS011;29904;51.058;5.378;2022-08-03T01:53:52;3.03;;;1.23;;
44228;SDS011;29904;51.058;5.378;2022-08-03T01:56:19;3.50;;;1.60;;
44228;SDS011;29904;51.058;5.378;2022-08-03T01:58:48;2.47;;;1.40;;
44228;SDS011;29904;51.058;5.378;2022-08-03T02:01:16;2.20;;;1.30;;
44228;SDS011;29904;51.058;5.378;2022-08-03T02:03:44;3.20;;;1.30;;
44228;SDS011;29904;51.058;5.378;2022-08-03T02:06:13;4.75;;;1.30;;
44228;SDS011;29904;51.058;5.378;2022-08-03T02:08:42;2.28;;;1.30;;
44228;SDS011;29904;51.058;5.378;2022-08-03T02:11:11;3.53;;;1.30;;
44228;SDS011;29904;51.058;5.378;2022-08-03T02:13:37;4.07;;;1.27;;
44228;SDS011;29904;51.058;5.378;2022-08-03T02:16:04;2.63;;;1.50;;
44228;SDS011;29904;51.058;5.378;2022-08-03T02:18:31;3.47;;;1.30;;
44228;SDS011;29904;51.058;5.378;2022-08-03T02:20:59;2.08;;;1.38;;
44228;SDS011;29904;51.058;5.378;2022-08-03T02:23:26;3.42;;;1.40;;
44228;SDS011;29904;51.058;5.378;2022-08-03T02:25:52;4.10;;;1.60;;
44228;SDS011;29904;51.058;5.378;2022-08-03T02:28:23;2.50;;;1.50;;
44228;SDS011;29904;51.058;5.378;2022-08-03T02:30:54;2.83;;;1.40;;
44228;SDS011;29904;51.058;5.378;2022-08-03T02:33:26;3.28;;;1.60;;
44228;SDS011;29904;51.058;5.378;2022-08-03T02:36:05;3.63;;;1.27;;
44228;SDS011;29904;51.058;5.378;2022-08-03T02:38:33;4.20;;;1.50;;
44228;SDS011;29904;51.058;5.378;2022-08-03T02:41:04;2.80;;;1.30;;
44228;SDS011;29904;51.058;5.378;2022-08-03T02:43:33;3.43;;;1.40;;
44228;SDS011;29904;51.058;5.378;2022-08-03T02:46:01;2.55;;;1.38;;
44228;SDS011;29904;51.058;5.378;2022-08-03T02:48:29;4.30;;;1.40;;
44228;SDS011;29904;51.058;5.378;2022-08-03T02:50:58;2.50;;;1.60;;
44228;SDS011;29904;51.058;5.378;2022-08-03T02:53:26;2.90;;;1.30;;
44228;SDS011;29904;51.058;5.378;2022-08-03T02:55:53;4.78;;;1.75;;
44228;SDS011;29904;51.058;5.378;2022-08-03T02:58:20;3.58;;;1.60;;
44228;SDS011;29904;51.058;5.378;2022-08-03T03:00:49;3.15;;;1.70;;
44228;SDS011;29904;51.058;5.378;2022-08-03T03:03:16;1.88;;;1.30;;
44228;SDS011;29904;51.058;5.378;2022-08-03T03:05:43;3.45;;;1.85;;
44228;SDS011;29904;51.058;5.378;2022-08-03T03:08:13;2.95;;;1.60;;
44228;SDS011;29904;51.058;5.378;2022-08-03T03:10:41;2.30;;;1.33;;
44228;SDS011;29904;51.058;5.378;2022-08-03T03:13:09;3.20;;;1.60;;
44228;SDS011;29904;51.058;5.378;2022-08-03T03:15:37;5.70;;;1.73;;
44228;SDS011;29904;51.058;5.378;2022-08-03T03:18:05;3.40;;;1.65;;
44228;SDS011;29904;51.058;5.378;2022-08-03T03:20:34;2.92;;;1.58;;
44228;SDS011;29904;51.058;5.378;2022-08-03T03:23:01;2.70;;;1.55;;
44228;SDS011;29904;51.058;5.378;2022-08-03T03:25:29;3.65;;;1.52;;
44228;SDS011;29904;51.058;5.378;2022-08-03T03:27:56;3.40;;;1.67;;
44228;SDS011;29904;51.058;5.378;2022-08-03T03:30:23;2.25;;;1.40;;
44228;SDS011;29904;51.058;5.378;2022-08-03T03:32:50;2.83;;;1.60;;
44228;SDS011;29904;51.058;5.378;2022-08-03T03:35:18;4.65;;;1.63;;
44228;SDS011;29904;51.058;5.378;2022-08-03T03:37:44;4.90;;;1.63;;
44228;SDS011;29904;51.058;5.378;2022-08-03T03:40:10;3.08;;;1.50;;
44228;SDS011;29904;51.058;5.378;2022-08-03T03:42:35;2.95;;;1.42;;
44228;SDS011;29904;51.058;5.378;2022-08-03T03:45:05;2.63;;;1.33;;
44228;SDS011;29904;51.058;5.378;2022-08-03T03:47:35;2.92;;;1.48;;
44228;SDS011;29904;51.058;5.378;2022-08-03T03:50:04;2.75;;;1.50;;
44228;SDS011;29904;51.058;5.378;2022-08-03T03:52:31;6.47;;;1.80;;
44228;SDS011;29904;51.058;5.378;2022-08-03T03:54:57;2.05;;;1.60;;
44228;SDS011;29904;51.058;5.378;2022-08-03T03:57:23;3.13;;;1.50;;
44228;SDS011;29904;51.058;5.378;2022-08-03T03:59:51;3.53;;;1.50;;
44228;SDS011;29904;51.058;5.378;2022-08-03T04:02:17;3.03;;;1.50;;
44228;SDS011;29904;51.058;5.378;2022-08-03T04:04:43;3.33;;;1.58;;
44228;SDS011;29904;51.058;5.378;2022-08-03T04:07:27;3.10;;;1.55;;
44228;SDS011;29904;51.058;5.378;2022-08-03T04:10:24;3.80;;;1.50;;
44228;SDS011;29904;51.058;5.378;2022-08-03T04:13:11;2.40;;;1.47;;
44228;SDS011;29904;51.058;5.378;2022-08-03T04:15:39;4.13;;;1.67;;
44228;SDS011;29904;51.058;5.378;2022-08-03T04:18:08;2.05;;;1.20;;
44228;SDS011;29904;51.058;5.378;2022-08-03T04:20:37;3.00;;;1.40;;
44228;SDS011;29904;51.058;5.378;2022-08-03T04:23:08;3.72;;;1.80;;
44228;SDS011;29904;51.058;5.378;2022-08-03T04:25:37;2.88;;;1.38;;
44228;SDS011;29904;51.058;5.378;2022-08-03T04:28:05;3.72;;;1.55;;
44228;SDS011;29904;51.058;5.378;2022-08-03T04:30:32;2.60;;;1.58;;
44228;SDS011;29904;51.058;5.378;2022-08-03T04:33:01;3.08;;;1.42;;
44228;SDS011;29904;51.058;5.378;2022-08-03T04:35:30;2.93;;;1.50;;
44228;SDS011;29904;51.058;5.378;2022-08-03T04:37:59;4.45;;;1.55;;
44228;SDS011;29904;51.058;5.378;2022-08-03T04:40:32;3.37;;;1.53;;
44228;SDS011;29904;51.058;5.378;2022-08-03T04:42:58;3.03;;;1.48;;
44228;SDS011;29904;51.058;5.378;2022-08-03T04:45:26;4.40;;;1.60;;
44228;SDS011;29904;51.058;5.378;2022-08-03T04:47:54;2.90;;;1.40;;
44228;SDS011;29904;51.058;5.378;2022-08-03T04:50:21;3.88;;;1.50;;
44228;SDS011;29904;51.058;5.378;2022-08-03T04:52:47;4.13;;;1.70;;
44228;SDS011;29904;51.058;5.378;2022-08-03T04:55:25;3.80;;;1.60;;
44228;SDS011;29904;51.058;5.378;2022-08-03T04:57:52;3.85;;;1.65;;
44228;SDS011;29904;51.058;5.378;2022-08-03T05:00:18;2.88;;;1.40;;
44228;SDS011;29904;51.058;5.378;2022-08-03T05:02:44;3.30;;;1.45;;
44228;SDS011;29904;51.058;5.378;2022-08-03T05:05:09;3.88;;;1.67;;
44228;SDS011;29904;51.058;5.378;2022-08-03T05:07:36;1.88;;;1.23;;
44228;SDS011;29904;51.058;5.378;2022-08-03T05:10:05;4.07;;;1.58;;
44228;SDS011;29904;51.058;5.378;2022-08-03T05:12:32;1.90;;;1.30;;
44228;SDS011;29904;51.058;5.378;2022-08-03T05:14:58;4.10;;;1.40;;
44228;SDS011;29904;51.058;5.378;2022-08-03T05:17:24;2.30;;;1.40;;
44228;SDS011;29904;51.058;5.378;2022-08-03T05:19:50;3.78;;;1.70;;
44228;SDS011;29904;51.058;5.378;2022-08-03T05:22:16;4.35;;;1.27;;
44228;SDS011;29904;51.058;5.378;2022-08-03T05:24:41;4.10;;;1.47;;
44228;SDS011;29904;51.058;5.378;2022-08-03T05:27:07;3.88;;;1.38;;
44228;SDS011;29904;51.058;5.378;2022-08-03T05:29:33;3.75;;;1.50;;
44228;SDS011;29904;51.058;5.378;2022-08-03T05:31:59;3.80;;;1.30;;
44228;SDS011;29904;51.058;5.378;2022-08-03T05:34:25;2.75;;;1.50;;
44228;SDS011;29904;51.058;5.378;2022-08-03T05:36:51;4.03;;;1.45;;
44228;SDS011;29904;51.058;5.378;2022-08-03T05:39:17;3.87;;;1.73;;
44228;SDS011;29904;51.058;5.378;2022-08-03T05:41:42;5.20;;;1.80;;
44228;SDS011;29904;51.058;5.378;2022-08-03T05:44:08;4.68;;;2.28;;
44228;SDS011;29904;51.058;5.378;2022-08-03T05:46:34;4.63;;;1.90;;
44228;SDS011;29904;51.058;5.378;2022-08-03T05:48:59;3.70;;;1.60;;
44228;SDS011;29904;51.058;5.378;2022-08-03T05:51:25;3.53;;;1.40;;
44228;SDS011;29904;51.058;5.378;2022-08-03T05:53:52;2.83;;;1.58;;
44228;SDS011;29904;51.058;5.378;2022-08-03T05:56:20;4.47;;;1.80;;
44228;SDS011;29904;51.058;5.378;2022-08-03T05:58:48;4.32;;;1.23;;
44228;SDS011;29904;51.058;5.378;2022-08-03T06:01:14;5.65;;;1.20;;
44228;SDS011;29904;51.058;5.378;2022-08-03T06:03:40;3.10;;;1.55;;
44228;SDS011;29904;51.058;5.378;2022-08-03T06:06:09;5.35;;;1.48;;
44228;SDS011;29904;51.058;5.378;2022-08-03T06:08:35;4.85;;;1.60;;
44228;SDS011;29904;51.058;5.378;2022-08-03T06:11:01;3.80;;;1.30;;
44228;SDS011;29904;51.058;5.378;2022-08-03T06:13:27;3.22;;;1.40;;
44228;SDS011;29904;51.058;5.378;2022-08-03T06:15:53;3.00;;;1.30;;
44228;SDS011;29904;51.058;5.378;2022-08-03T06:18:19;3.03;;;1.27;;
44228;SDS011;29904;51.058;5.378;2022-08-03T06:20:48;3.80;;;1.40;;
44228;SDS011;29904;51.058;5.378;2022-08-03T06:23:15;3.77;;;1.20;;
44228;SDS011;29904;51.058;5.378;2022-08-03T06:25:41;3.15;;;1.27;;
44228;SDS011;29904;51.058;5.378;2022-08-03T06:28:07;3.63;;;1.17;;
44228;SDS011;29904;51.058;5.378;2022-08-03T06:30:33;5.18;;;1.30;;
44228;SDS011;29904;51.058;5.378;2022-08-03T06:32:59;2.75;;;0.90;;
44228;SDS011;29904;51.058;5.378;2022-08-03T06:35:26;1.92;;;0.90;;
44228;SDS011;29904;51.058;5.378;2022-08-03T06:37:53;4.28;;;1.13;;
44228;SDS011;29904;51.058;5.378;2022-08-03T06:40:20;2.90;;;1.17;;
44228;SDS011;29904;51.058;5.378;2022-08-03T06:42:53;2.05;;;1.10;;
44228;SDS011;29904;51.058;5.378;2022-08-03T06:45:23;3.00;;;1.00;;
44228;SDS011;29904;51.058;5.378;2022-08-03T06:48:01;2.80;;;1.00;;
44228;SDS011;29904;51.058;5.378;2022-08-03T06:50:29;3.38;;;1.10;;
44228;SDS011;29904;51.058;5.378;2022-08-03T06:52:55;4.32;;;1.10;;
44228;SDS011;29904;51.058;5.378;2022-08-03T06:55:22;5.32;;;1.17;;
44228;SDS011;29904;51.058;5.378;2022-08-03T06:57:48;4.40;;;0.95;;
44228;SDS011;29904;51.058;5.378;2022-08-03T07:00:17;3.47;;;1.17;;
44228;SDS011;29904;51.058;5.378;2022-08-03T07:02:44;3.20;;;0.90;;
44228;SDS011;29904;51.058;5.378;2022-08-03T07:05:10;3.67;;;1.10;;
44228;SDS011;29904;51.058;5.378;2022-08-03T07:07:38;4.55;;;1.00;;
44228;SDS011;29904;51.058;5.378;2022-08-03T07:10:04;1.95;;;0.90;;
44228;SDS011;29904;51.058;5.378;2022-08-03T07:12:31;2.67;;;0.90;;
44228;SDS011;29904;51.058;5.378;2022-08-03T07:15:00;4.22;;;0.73;;
44228;SDS011;29904;51.058;5.378;2022-08-03T07:17:27;3.63;;;0.95;;
44228;SDS011;29904;51.058;5.378;2022-08-03T07:19:54;2.45;;;0.73;;
44228;SDS011;29904;51.058;5.378;2022-08-03T07:22:22;2.30;;;0.80;;
44228;SDS011;29904;51.058;5.378;2022-08-03T07:24:48;2.72;;;0.80;;
44228;SDS011;29904;51.058;5.378;2022-08-03T07:27:14;3.73;;;0.90;;
44228;SDS011;29904;51.058;5.378;2022-08-03T07:29:40;2.58;;;0.80;;
44228;SDS011;29904;51.058;5.378;2022-08-03T07:32:08;3.85;;;0.88;;
44228;SDS011;29904;51.058;5.378;2022-08-03T07:34:34;1.73;;;0.70;;
44228;SDS011;29904;51.058;5.378;2022-08-03T07:37:00;2.30;;;0.68;;
44228;SDS011;29904;51.058;5.378;2022-08-03T07:39:28;2.33;;;0.73;;
44228;SDS011;29904;51.058;5.378;2022-08-03T07:41:53;2.53;;;0.70;;
44228;SDS011;29904;51.058;5.378;2022-08-03T07:44:19;3.50;;;0.70;;
44228;SDS011;29904;51.058;5.378;2022-08-03T07:46:45;2.72;;;0.65;;
44228;SDS011;29904;51.058;5.378;2022-08-03T07:49:11;3.63;;;0.80;;
44228;SDS011;29904;51.058;5.378;2022-08-03T07:51:37;3.95;;;0.90;;
44228;SDS011;29904;51.058;5.378;2022-08-03T07:54:06;2.35;;;0.60;;
44228;SDS011;29904;51.058;5.378;2022-08-03T07:56:34;3.08;;;0.80;;
44228;SDS011;29904;51.058;5.378;2022-08-03T07:59:00;2.75;;;0.65;;
44228;SDS011;29904;51.058;5.378;2022-08-03T08:01:29;3.10;;;0.60;;
44228;SDS011;29904;51.058;5.378;2022-08-03T08:03:56;2.28;;;0.60;;
44228;SDS011;29904;51.058;5.378;2022-08-03T08:06:22;2.73;;;0.70;;
44228;SDS011;29904;51.058;5.378;2022-08-03T08:08:49;3.97;;;0.60;;
44228;SDS011;29904;51.058;5.378;2022-08-03T08:11:15;4.13;;;1.00;;
44228;SDS011;29904;51.058;5.378;2022-08-03T08:13:41;4.43;;;0.70;;
44228;SDS011;29904;51.058;5.378;2022-08-03T08:16:07;3.20;;;0.63;;
44228;SDS011;29904;51.058;5.378;2022-08-03T08:18:32;4.07;;;0.70;;
44228;SDS011;29904;51.058;5.378;2022-08-03T08:20:58;3.87;;;0.67;;
44228;SDS011;29904;51.058;5.378;2022-08-03T08:23:25;2.80;;;0.70;;
44228;SDS011;29904;51.058;5.378;2022-08-03T08:25:51;2.35;;;0.70;;
44228;SDS011;29904;51.058;5.378;2022-08-03T08:28:18;4.57;;;0.70;;
44228;SDS011;29904;51.058;5.378;2022-08-03T08:30:44;2.17;;;0.70;;
44228;SDS011;29904;51.058;5.378;2022-08-03T08:33:10;3.50;;;0.68;;
44228;SDS011;29904;51.058;5.378;2022-08-03T08:35:36;3.10;;;0.80;;
44228;SDS011;29904;51.058;5.378;2022-08-03T08:38:02;3.87;;;0.67;;
44228;SDS011;29904;51.058;5.378;2022-08-03T08:40:28;2.80;;;0.70;;
44228;SDS011;29904;51.058;5.378;2022-08-03T08:42:54;5.67;;;0.83;;
44228;SDS011;29904;51.058;5.378;2022-08-03T08:45:20;3.92;;;0.70;;
44228;SDS011;29904;51.058;5.378;2022-08-03T08:47:46;2.93;;;0.47;;
44228;SDS011;29904;51.058;5.378;2022-08-03T08:50:17;5.07;;;0.70;;
44228;SDS011;29904;51.058;5.378;2022-08-03T08:52:45;2.78;;;0.60;;
44228;SDS011;29904;51.058;5.378;2022-08-03T08:55:13;5.03;;;0.77;;
44228;SDS011;29904;51.058;5.378;2022-08-03T08:57:46;1.90;;;0.40;;
44228;SDS011;29904;51.058;5.378;2022-08-03T09:00:19;3.03;;;0.60;;
44228;SDS011;29904;51.058;5.378;2022-08-03T09:02:46;4.78;;;0.57;;
44228;SDS011;29904;51.058;5.378;2022-08-03T09:05:13;3.08;;;0.60;;
44228;SDS011;29904;51.058;5.378;2022-08-03T09:07:44;1.88;;;0.60;;
44228;SDS011;29904;51.058;5.378;2022-08-03T09:10:11;2.85;;;0.57;;
44228;SDS011;29904;51.058;5.378;2022-08-03T09:12:41;2.55;;;0.50;;
44228;SDS011;29904;51.058;5.378;2022-08-03T09:15:21;2.45;;;0.68;;
44228;SDS011;29904;51.058;5.378;2022-08-03T09:17:53;2.35;;;0.70;;
44228;SDS011;29904;51.058;5.378;2022-08-03T09:20:21;1.55;;;0.55;;
44228;SDS011;29904;51.058;5.378;2022-08-03T09:22:55;3.03;;;0.50;;
44228;SDS011;29904;51.058;5.378;2022-08-03T09:30:32;2.70;;;0.63;;
44228;SDS011;29904;51.058;5.378;2022-08-03T09:33:02;2.25;;;0.60;;
44228;SDS011;29904;51.058;5.378;2022-08-03T09:35:29;3.20;;;0.60;;
44228;SDS011;29904;51.058;5.378;2022-08-03T09:38:14;3.13;;;0.60;;
44228;SDS011;29904;51.058;5.378;2022-08-03T09:40:48;4.23;;;0.67;;
44228;SDS011;29904;51.058;5.378;2022-08-03T09:43:14;3.40;;;0.70;;
44228;SDS011;29904;51.058;5.378;2022-08-03T09:45:41;1.83;;;0.50;;
44228;SDS011;29904;51.058;5.378;2022-08-03T09:48:27;2.40;;;0.57;;
44228;SDS011;29904;51.058;5.378;2022-08-03T09:50:58;1.67;;;0.60;;
44228;SDS011;29904;51.058;5.378;2022-08-03T09:53:26;3.22;;;0.47;;
44228;SDS011;29904;51.058;5.378;2022-08-03T09:58:19;1.10;;;0.40;;
44228;SDS011;29904;51.058;5.378;2022-08-03T10:03:29;4.63;;;0.55;;
44228;SDS011;29904;51.058;5.378;2022-08-03T10:05:57;3.17;;;0.50;;
44228;SDS011;29904;51.058;5.378;2022-08-03T10:08:23;2.22;;;0.40;;
44228;SDS011;29904;51.058;5.378;2022-08-03T10:10:50;2.00;;;0.40;;
44228;SDS011;29904;51.058;5.378;2022-08-03T10:13:21;2.30;;;0.50;;
44228;SDS011;29904;51.058;5.378;2022-08-03T10:15:49;1.67;;;0.50;;
44228;SDS011;29904;51.058;5.378;2022-08-03T10:18:15;3.92;;;0.50;;
44228;SDS011;29904;51.058;5.378;2022-08-03T10:20:54;2.70;;;0.52;;
44228;SDS011;29904;51.058;5.378;2022-08-03T10:23:27;2.40;;;0.40;;
44228;SDS011;29904;51.058;5.378;2022-08-03T10:25:54;3.78;;;0.65;;
44228;SDS011;29904;51.058;5.378;2022-08-03T10:28:25;1.85;;;0.40;;
44228;SDS011;29904;51.058;5.378;2022-08-03T10:30:59;1.92;;;0.40;;
44228;SDS011;29904;51.058;5.378;2022-08-03T10:33:27;1.75;;;0.52;;
44228;SDS011;29904;51.058;5.378;2022-08-03T10:35:58;4.20;;;0.80;;
44228;SDS011;29904;51.058;5.378;2022-08-03T10:38:31;1.67;;;0.60;;
44228;SDS011;29904;51.058;5.378;2022-08-03T10:41:01;2.53;;;0.40;;
44228;SDS011;29904;51.058;5.378;2022-08-03T10:43:35;3.58;;;0.45;;
44228;SDS011;29904;51.058;5.378;2022-08-03T10:46:15;3.00;;;0.40;;
44228;SDS011;29904;51.058;5.378;2022-08-03T10:48:44;3.60;;;0.40;;
44228;SDS011;29904;51.058;5.378;2022-08-03T10:51:12;1.92;;;0.40;;
44228;SDS011;29904;51.058;5.378;2022-08-03T10:53:41;4.60;;;0.40;;
44228;SDS011;29904;51.058;5.378;2022-08-03T10:59:46;1.77;;;0.50;;
44228;SDS011;29904;51.058;5.378;2022-08-03T11:02:11;1.75;;;0.50;;
44228;SDS011;29904;51.058;5.378;2022-08-03T11:04:38;3.05;;;0.45;;
44228;SDS011;29904;51.058;5.378;2022-08-03T11:09:52;2.60;;;0.50;;
44228;SDS011;29904;51.058;5.378;2022-08-03T11:14:58;1.52;;;0.30;;
44228;SDS011;29904;51.058;5.378;2022-08-03T11:17:25;3.05;;;0.43;;
44228;SDS011;29904;51.058;5.378;2022-08-03T11:19:51;2.77;;;0.53;;
44228;SDS011;29904;51.058;5.378;2022-08-03T11:22:18;1.13;;;0.40;;
44228;SDS011;29904;51.058;5.378;2022-08-03T11:27:30;4.68;;;0.60;;
44228;SDS011;29904;51.058;5.378;2022-08-03T11:32:58;2.22;;;0.60;;
44228;SDS011;29904;51.058;5.378;2022-08-03T11:35:32;4.13;;;0.60;;
44228;SDS011;29904;51.058;5.378;2022-08-03T11:38:09;2.00;;;0.57;;
44228;SDS011;29904;51.058;5.378;2022-08-03T11:40:39;2.13;;;0.50;;
44228;SDS011;29904;51.058;5.378;2022-08-03T11:46:03;2.43;;;0.70;;
44228;SDS011;29904;51.058;5.378;2022-08-03T11:48:35;1.80;;;0.60;;
44228;SDS011;29904;51.058;5.378;2022-08-03T11:51:03;2.40;;;0.45;;
44228;SDS011;29904;51.058;5.378;2022-08-03T11:53:31;3.63;;;0.63;;
44228;SDS011;29904;51.058;5.378;2022-08-03T11:55:58;1.27;;;0.40;;
44228;SDS011;29904;51.058;5.378;2022-08-03T11:58:26;2.25;;;0.55;;
44228;SDS011;29904;51.058;5.378;2022-08-03T12:01:04;2.40;;;0.60;;
44228;SDS011;29904;51.058;5.378;2022-08-03T12:03:33;2.85;;;0.55;;
44228;SDS011;29904;51.058;5.378;2022-08-03T12:05:59;3.50;;;0.65;;
44228;SDS011;29904;51.058;5.378;2022-08-03T12:08:29;2.90;;;0.55;;
44228;SDS011;29904;51.058;5.378;2022-08-03T12:11:00;1.90;;;0.60;;
44228;SDS011;29904;51.058;5.378;2022-08-03T12:13:44;3.20;;;0.67;;
44228;SDS011;29904;51.058;5.378;2022-08-03T12:16:22;3.63;;;0.75;;
44228;SDS011;29904;51.058;5.378;2022-08-03T12:18:56;2.15;;;0.68;;
44228;SDS011;29904;51.058;5.378;2022-08-03T12:21:27;1.75;;;0.68;;
44228;SDS011;29904;51.058;5.378;2022-08-03T12:23:58;2.37;;;0.60;;
44228;SDS011;29904;51.058;5.378;2022-08-03T12:26:29;3.17;;;0.70;;
44228;SDS011;29904;51.058;5.378;2022-08-03T12:29:21;3.37;;;0.60;;
44228;SDS011;29904;51.058;5.378;2022-08-03T12:31:48;3.40;;;0.60;;
44228;SDS011;29904;51.058;5.378;2022-08-03T12:34:15;2.07;;;0.50;;
44228;SDS011;29904;51.058;5.378;2022-08-03T12:36:53;2.53;;;0.65;;
44228;SDS011;29904;51.058;5.378;2022-08-03T12:39:26;3.92;;;0.50;;
44228;SDS011;29904;51.058;5.378;2022-08-03T12:41:55;2.45;;;0.70;;
44228;SDS011;29904;51.058;5.378;2022-08-03T12:44:33;2.45;;;0.63;;
44228;SDS011;29904;51.058;5.378;2022-08-03T12:47:02;3.70;;;0.70;;
44228;SDS011;29904;51.058;5.378;2022-08-03T12:52:20;1.67;;;0.55;;
44228;SDS011;29904;51.058;5.378;2022-08-03T12:54:54;2.95;;;0.63;;
44228;SDS011;29904;51.058;5.378;2022-08-03T12:57:25;4.45;;;0.80;;
44228;SDS011;29904;51.058;5.378;2022-08-03T13:00:13;2.87;;;0.70;;
44228;SDS011;29904;51.058;5.378;2022-08-03T13:02:42;1.77;;;0.60;;
44228;SDS011;29904;51.058;5.378;2022-08-03T13:05:14;1.08;;;0.50;;
44228;SDS011;29904;51.058;5.378;2022-08-03T13:07:44;1.48;;;0.60;;
44228;SDS011;29904;51.058;5.378;2022-08-03T13:10:25;4.30;;;0.70;;
44228;SDS011;29904;51.058;5.378;2022-08-03T13:12:56;1.85;;;0.60;;
44228;SDS011;29904;51.058;5.378;2022-08-03T13:15:28;3.47;;;0.80;;
44228;SDS011;29904;51.058;5.378;2022-08-03T13:17:55;2.05;;;0.60;;
44228;SDS011;29904;51.058;5.378;2022-08-03T13:20:22;1.02;;;0.50;;
44228;SDS011;29904;51.058;5.378;2022-08-03T13:22:50;2.30;;;0.55;;
44228;SDS011;29904;51.058;5.378;2022-08-03T13:25:18;3.22;;;0.50;;
44228;SDS011;29904;51.058;5.378;2022-08-03T13:27:45;2.78;;;0.60;;
44228;SDS011;29904;51.058;5.378;2022-08-03T13:30:11;1.37;;;0.50;;
44228;SDS011;29904;51.058;5.378;2022-08-03T13:32:37;1.98;;;0.52;;
44228;SDS011;29904;51.058;5.378;2022-08-03T13:35:06;2.47;;;0.67;;
44228;SDS011;29904;51.058;5.378;2022-08-03T13:37:32;3.10;;;0.60;;
44228;SDS011;29904;51.058;5.378;2022-08-03T13:39:59;2.17;;;0.60;;
44228;SDS011;29904;51.058;5.378;2022-08-03T13:42:28;2.13;;;0.57;;
44228;SDS011;29904;51.058;5.378;2022-08-03T13:44:55;2.40;;;0.57;;
44228;SDS011;29904;51.058;5.378;2022-08-03T13:47:21;2.88;;;0.60;;
44228;SDS011;29904;51.058;5.378;2022-08-03T13:49:49;1.55;;;0.45;;
44228;SDS011;29904;51.058;5.378;2022-08-03T13:52:17;2.53;;;0.60;;
44228;SDS011;29904;51.058;5.378;2022-08-03T13:54:43;2.33;;;0.40;;
44228;SDS011;29904;51.058;5.378;2022-08-03T13:57:09;3.33;;;0.68;;
44228;SDS011;29904;51.058;5.378;2022-08-03T13:59:35;1.70;;;0.50;;
44228;SDS011;29904;51.058;5.378;2022-08-03T14:02:02;1.95;;;0.50;;
44228;SDS011;29904;51.058;5.378;2022-08-03T14:04:27;3.20;;;0.80;;
44228;SDS011;29904;51.058;5.378;2022-08-03T14:06:55;4.20;;;0.52;;
44228;SDS011;29904;51.058;5.378;2022-08-03T14:09:21;1.47;;;0.40;;
44228;SDS011;29904;51.058;5.378;2022-08-03T14:11:46;3.07;;;0.50;;
44228;SDS011;29904;51.058;5.378;2022-08-03T14:14:12;2.58;;;0.60;;
44228;SDS011;29904;51.058;5.378;2022-08-03T14:16:38;1.63;;;0.55;;
44228;SDS011;29904;51.058;5.378;2022-08-03T14:19:04;5.00;;;0.50;;
44228;SDS011;29904;51.058;5.378;2022-08-03T14:21:32;2.00;;;0.50;;
44228;SDS011;29904;51.058;5.378;2022-08-03T14:23:58;2.88;;;0.47;;
44228;SDS011;29904;51.058;5.378;2022-08-03T14:26:24;1.43;;;0.50;;
44228;SDS011;29904;51.058;5.378;2022-08-03T14:28:52;4.30;;;1.10;;
44228;SDS011;29904;51.058;5.378;2022-08-03T14:31:17;1.75;;;0.52;;
44228;SDS011;29904;51.058;5.378;2022-08-03T14:33:43;3.40;;;0.60;;
44228;SDS011;29904;51.058;5.378;2022-08-03T14:36:09;1.60;;;0.47;;
44228;SDS011;29904;51.058;5.378;2022-08-03T14:38:35;1.97;;;0.60;;
44228;SDS011;29904;51.058;5.378;2022-08-03T14:41:02;1.07;;;0.50;;
44228;SDS011;29904;51.058;5.378;2022-08-03T14:43:31;3.70;;;0.60;;
44228;SDS011;29904;51.058;5.378;2022-08-03T14:45:56;3.03;;;0.55;;
44228;SDS011;29904;51.058;5.378;2022-08-03T14:48:23;1.43;;;0.50;;
44228;SDS011;29904;51.058;5.378;2022-08-03T14:50:52;2.30;;;0.60;;
44228;SDS011;29904;51.058;5.378;2022-08-03T14:53:21;2.33;;;0.40;;
44228;SDS011;29904;51.058;5.378;2022-08-03T14:55:49;0.70;;;0.40;;
44228;SDS011;29904;51.058;5.378;2022-08-03T14:58:24;1.10;;;0.43;;
44228;SDS011;29904;51.058;5.378;2022-08-03T15:00:53;3.92;;;0.60;;
44228;SDS011;29904;51.058;5.378;2022-08-03T15:03:21;1.15;;;0.50;;
44228;SDS011;29904;51.058;5.378;2022-08-03T15:05:51;3.30;;;0.50;;
44228;SDS011;29904;51.058;5.378;2022-08-03T15:08:21;2.60;;;0.57;;
44228;SDS011;29904;51.058;5.378;2022-08-03T15:10:50;1.43;;;0.40;;
44228;SDS011;29904;51.058;5.378;2022-08-03T15:13:18;1.27;;;0.60;;
44228;SDS011;29904;51.058;5.378;2022-08-03T15:15:47;1.27;;;0.43;;
44228;SDS011;29904;51.058;5.378;2022-08-03T15:18:17;2.38;;;0.47;;
44228;SDS011;29904;51.058;5.378;2022-08-03T15:20:45;2.47;;;0.52;;
44228;SDS011;29904;51.058;5.378;2022-08-03T15:23:15;1.63;;;0.50;;
44228;SDS011;29904;51.058;5.378;2022-08-03T15:25:43;2.33;;;0.60;;
44228;SDS011;29904;51.058;5.378;2022-08-03T15:28:11;2.50;;;0.52;;
44228;SDS011;29904;51.058;5.378;2022-08-03T15:30:38;2.85;;;0.63;;
44228;SDS011;29904;51.058;5.378;2022-08-03T15:33:07;4.15;;;0.45;;
44228;SDS011;29904;51.058;5.378;2022-08-03T15:35:34;1.30;;;0.40;;